Annabella, Utah
Current Conditions -  °F | °C
As of 9:35 PM on Saturday 22 Nov 2014 (Local Time) from KDTA Reporting Station
Overcast Overcast  
Wind Chill:   Ceiling: 7500
Heat Index:   Visibility: 10mi
Dew Point:   Wind: 0mph
Humidity: 98%   Direction: NA
Pressure: 29.94"   Gusts: NA
Location:  38.71°N, 112.06°W
Report Text: KDTA 230435Z AUTO 00000KT 10SM BKN075 OVC100 02/02 A2994 RMK AO1 T00180015
Loading
Personal Weather Stations






























Interactive Weather Map New forecast layout! Learn more

10-Day Weather Forecast

Advertisements
Track Severe Weather on mobile